Time;durP1;ratioP1;P1;durP2;ratioP2;P2;SDS_P1;SDS_P2;PMS_P1;PMS_P2;Temp;Humidity;BMP_temperature;BMP_pressure;BME280_temperature;BME280_humidity;BME280_pressure;Samples;Min_cycle;Max_cycle;Signal;HPM_P1;HPM_P2
2022/03/05 00:02:17;;;;;;;12.50;9.23;;;2.10;99.90;;;;;;5053480;28;20049;-77
2022/03/05 00:04:43;;;;;;;14.57;10.15;;;2.00;99.90;;;;;;5053526;28;20043;-77
2022/03/05 00:07:09;;;;;;;13.52;9.68;;;2.00;99.90;;;;;;5037184;28;20043;-77
2022/03/05 00:09:34;;;;;;;13.77;9.35;;;1.90;99.90;;;;;;5037116;28;20404;-77
2022/03/05 00:12:00;;;;;;;13.70;10.07;;;1.90;99.90;;;;;;5036722;28;20485;-77
2022/03/05 00:14:26;;;;;;;13.57;9.20;;;1.80;99.90;;;;;;5053394;28;20041;-77
2022/03/05 00:16:51;;;;;;;14.88;10.30;;;1.80;99.90;;;;;;5053651;28;20084;-77
2022/03/05 00:19:17;;;;;;;14.05;10.30;;;1.80;99.90;;;;;;5036703;28;20412;-77
2022/03/05 00:21:43;;;;;;;13.65;10.30;;;1.80;99.90;;;;;;5053131;28;20109;-77
2022/03/05 00:24:08;;;;;;;15.63;10.48;;;1.80;99.90;;;;;;5036671;28;20044;-77
2022/03/05 00:26:34;;;;;;;14.65;10.50;;;1.70;99.90;;;;;;5053206;28;20029;-77
2022/03/05 00:28:59;;;;;;;14.02;9.77;;;1.70;99.90;;;;;;5053372;28;20047;-76
2022/03/05 00:31:25;;;;;;;14.65;10.73;;;1.70;99.90;;;;;;5053029;28;20465;-77
2022/03/05 00:33:50;;;;;;;13.07;9.43;;;1.70;99.90;;;;;;5053031;28;20059;-77
2022/03/05 00:36:16;;;;;;;16.48;10.93;;;1.60;99.90;;;;;;5036412;28;20039;-77
2022/03/05 00:38:42;;;;;;;12.65;9.93;;;1.60;99.90;;;;;;5036387;28;20040;-77
2022/03/05 00:41:08;;;;;;;13.75;10.55;;;1.60;99.90;;;;;;5052188;28;20091;-77
2022/03/05 00:43:34;;;;;;;13.90;9.93;;;1.60;99.90;;;;;;5052704;28;20084;-76
2022/03/05 00:46:00;;;;;;;16.27;10.48;;;1.60;99.90;;;;;;5052745;28;20504;-76
2022/03/05 00:48:26;;;;;;;13.88;10.80;;;1.60;99.90;;;;;;5036173;28;20041;-76
2022/03/05 00:50:51;;;;;;;17.00;10.85;;;1.60;99.90;;;;;;5052651;28;20041;-77
2022/03/05 00:53:18;;;;;;;13.50;10.25;;;1.50;99.90;;;;;;5052671;28;20037;-77
2022/03/05 00:55:44;;;;;;;14.73;10.55;;;1.50;99.90;;;;;;5052582;28;20041;-77
2022/03/05 00:58:10;;;;;;;14.93;10.35;;;1.50;99.90;;;;;;5052556;28;20040;-77
2022/03/05 01:00:35;;;;;;;14.90;10.20;;;1.50;99.90;;;;;;5052770;28;20110;-77
2022/03/05 01:03:02;;;;;;;14.65;11.05;;;1.40;99.90;;;;;;5052672;28;20556;-77
2022/03/05 01:05:27;;;;;;;15.63;11.32;;;1.40;99.90;;;;;;5035916;28;20033;-77
2022/03/05 01:07:53;;;;;;;14.18;10.57;;;1.40;99.90;;;;;;5052673;28;20036;-75
2022/03/05 01:10:19;;;;;;;13.60;10.45;;;1.40;99.90;;;;;;5052370;28;20086;-77
2022/03/05 01:12:44;;;;;;;15.27;11.27;;;1.30;99.90;;;;;;5019291;28;20044;-77
2022/03/05 01:15:10;;;;;;;14.20;10.40;;;1.30;99.90;;;;;;5035635;28;20049;-77
2022/03/05 01:17:36;;;;;;;14.18;10.98;;;1.30;99.90;;;;;;5019035;28;20043;-77
2022/03/05 01:20:02;;;;;;;13.27;9.55;;;1.30;99.90;;;;;;5019143;28;20122;-77
2022/03/05 01:22:28;;;;;;;14.73;10.93;;;1.20;99.90;;;;;;5035468;28;20508;-77
2022/03/05 01:24:53;;;;;;;14.35;11.07;;;1.20;99.90;;;;;;5019122;28;20493;-77
2022/03/05 01:27:21;;;;;;;13.77;10.63;;;1.20;99.90;;;;;;5019275;28;20040;-77
2022/03/05 01:29:46;;;;;;;13.98;10.40;;;1.20;99.90;;;;;;5018978;28;20478;-77
2022/03/05 01:32:12;;;;;;;13.85;10.90;;;1.20;99.90;;;;;;5035351;28;20052;-77
2022/03/05 01:34:37;;;;;;;13.52;10.48;;;1.20;99.90;;;;;;5018992;28;20044;-77
2022/03/05 01:37:03;;;;;;;14.43;10.38;;;1.10;99.90;;;;;;5018874;28;20041;-77
2022/03/05 01:39:29;;;;;;;14.13;10.15;;;1.10;99.90;;;;;;5035397;28;20033;-77
2022/03/05 01:41:55;;;;;;;17.38;10.50;;;1.10;99.90;;;;;;5018755;28;20044;-77
2022/03/05 01:44:22;;;;;;;13.50;10.38;;;1.10;99.90;;;;;;5035262;28;20037;-77
2022/03/05 01:46:48;;;;;;;14.90;10.10;;;1.10;99.90;;;;;;5018921;28;20493;-77
2022/03/05 01:49:14;;;;;;;12.15;9.88;;;1.10;99.90;;;;;;5035108;28;20037;-77
2022/03/05 01:51:41;;;;;;;13.73;9.93;;;1.10;99.90;;;;;;5035106;28;20041;-77
2022/03/05 01:54:07;;;;;;;13.15;10.10;;;1.10;99.90;;;;;;5036056;28;20036;-77
2022/03/05 01:56:34;;;;;;;14.90;10.10;;;1.00;99.90;;;;;;5035100;28;20045;-77
2022/03/05 01:59:00;;;;;;;19.65;10.40;;;1.10;99.90;;;;;;5035193;28;20045;-77
2022/03/05 02:01:28;;;;;;;12.70;9.23;;;1.00;99.90;;;;;;5018852;28;20068;-77
2022/03/05 02:03:54;;;;;;;12.10;9.30;;;1.00;99.90;;;;;;5035078;28;20048;-75
2022/03/05 02:06:21;;;;;;;12.35;9.20;;;1.10;99.90;;;;;;5018648;28;20037;-75
2022/03/05 02:08:47;;;;;;;12.85;9.70;;;1.00;99.90;;;;;;5035310;28;20048;-75
2022/03/05 02:11:13;;;;;;;13.90;9.15;;;1.00;99.90;;;;;;5039195;28;20174;-77
2022/03/05 02:13:38;;;;;;;13.80;9.30;;;1.00;99.90;;;;;;5051619;28;20131;-77
2022/03/05 02:16:04;;;;;;;12.82;9.57;;;1.00;99.90;;;;;;5051585;28;20041;-77
2022/03/05 02:18:30;;;;;;;12.40;9.13;;;1.00;99.90;;;;;;5051579;28;20119;-77
2022/03/05 02:20:56;;;;;;;13.45;9.20;;;1.00;99.90;;;;;;5051335;28;20037;-77
2022/03/05 02:23:21;;;;;;;12.10;8.63;;;0.90;99.90;;;;;;5051422;28;20029;-76
2022/03/05 02:25:52;;;;;;;12.38;8.43;;;0.90;99.90;;;;;;5035504;28;20037;-77
2022/03/05 02:28:19;;;;;;;11.20;8.60;;;0.90;99.90;;;;;;5051487;28;20040;-77
2022/03/05 02:30:44;;;;;;;13.38;8.90;;;0.90;99.90;;;;;;5051308;28;20040;-77
2022/03/05 02:33:10;;;;;;;12.45;8.80;;;0.90;99.90;;;;;;5051447;28;20041;-77
2022/03/05 02:35:35;;;;;;;12.93;8.50;;;0.90;99.90;;;;;;5052540;28;20037;-77
2022/03/05 02:38:01;;;;;;;10.73;7.50;;;0.90;99.90;;;;;;5051689;28;20041;-77
2022/03/05 02:40:26;;;;;;;10.75;7.95;;;0.80;99.90;;;;;;5034704;28;20040;-77
2022/03/05 02:42:52;;;;;;;9.88;7.30;;;0.80;99.90;;;;;;5051330;28;20053;-77
2022/03/05 02:45:18;;;;;;;13.38;8.15;;;0.80;99.90;;;;;;5051546;28;20044;-77
2022/03/05 02:47:43;;;;;;;11.75;8.10;;;0.80;99.90;;;;;;5051294;28;20037;-77
2022/03/05 02:50:09;;;;;;;9.88;6.82;;;0.90;99.90;;;;;;5051202;28;20033;-77
2022/03/05 02:52:38;;;;;;;9.95;7.13;;;0.80;99.90;;;;;;5051283;28;20128;-77
2022/03/05 02:55:04;;;;;;;11.63;8.02;;;0.80;99.90;;;;;;5034689;28;20416;-76
2022/03/05 02:57:30;;;;;;;10.82;7.15;;;0.80;99.90;;;;;;5051271;28;20080;-76
2022/03/05 02:59:55;;;;;;;10.43;7.40;;;0.80;99.90;;;;;;5051229;28;20038;-76
2022/03/05 03:02:21;;;;;;;12.00;7.72;;;0.80;99.90;;;;;;5050980;28;20040;-77
2022/03/05 03:04:46;;;;;;;12.68;7.80;;;0.80;99.90;;;;;;5035314;28;20044;-76
2022/03/05 03:07:12;;;;;;;12.15;7.72;;;0.90;99.90;;;;;;5038060;28;20037;-76
2022/03/05 03:09:37;;;;;;;12.02;8.23;;;0.90;99.90;;;;;;5038130;28;20029;-77
2022/03/05 03:12:03;;;;;;;11.30;7.68;;;0.90;99.90;;;;;;5054691;28;20083;-77
2022/03/05 03:14:29;;;;;;;11.25;8.07;;;1.00;99.90;;;;;;5054591;28;20052;-77
2022/03/05 03:16:54;;;;;;;12.63;8.18;;;0.90;99.90;;;;;;5038024;28;20099;-77
2022/03/05 03:19:20;;;;;;;12.38;7.38;;;0.90;99.90;;;;;;5054521;28;20047;-77
2022/03/05 03:21:46;;;;;;;11.73;8.10;;;0.90;99.90;;;;;;5037686;28;20128;-77
2022/03/05 03:24:12;;;;;;;12.98;8.73;;;0.90;99.90;;;;;;5037772;28;20040;-77
2022/03/05 03:26:37;;;;;;;13.02;8.85;;;0.90;99.90;;;;;;5037925;28;20045;-77
2022/03/05 03:29:03;;;;;;;13.93;8.68;;;0.90;99.90;;;;;;5054540;28;20143;-77
2022/03/05 03:31:28;;;;;;;12.27;7.90;;;0.90;99.90;;;;;;5037519;28;20489;-77
2022/03/05 03:33:54;;;;;;;12.82;8.18;;;0.90;99.90;;;;;;5054219;28;20047;-77
2022/03/05 03:36:20;;;;;;;11.60;7.72;;;0.90;99.90;;;;;;5055400;28;20041;-76
2022/03/05 03:38:45;;;;;;;12.13;8.20;;;0.80;99.90;;;;;;5040221;28;20131;-76
2022/03/05 03:41:11;;;;;;;15.48;8.38;;;0.80;99.90;;;;;;5039985;28;20045;-76
2022/03/05 03:43:37;;;;;;;12.70;7.88;;;0.80;99.90;;;;;;5056697;28;20037;-76
2022/03/05 03:46:02;;;;;;;12.18;7.82;;;0.80;99.90;;;;;;5040247;28;20033;-76
2022/03/05 03:48:28;;;;;;;13.00;8.45;;;0.80;99.90;;;;;;5056898;28;20041;-76
2022/03/05 03:50:53;;;;;;;11.80;7.63;;;0.70;99.90;;;;;;5040123;28;20135;-76
2022/03/05 03:53:19;;;;;;;12.02;8.00;;;0.70;99.90;;;;;;5040021;28;20129;-76
2022/03/05 03:55:45;;;;;;;13.63;9.07;;;0.70;99.90;;;;;;5040093;28;20043;-76
2022/03/05 03:58:10;;;;;;;13.68;7.97;;;0.70;99.90;;;;;;5039922;28;20064;-76
2022/03/05 04:00:36;;;;;;;12.73;7.97;;;0.70;99.90;;;;;;5056429;28;20037;-76
2022/03/05 04:03:02;;;;;;;10.63;7.30;;;0.60;99.90;;;;;;5039549;28;20033;-76
2022/03/05 04:05:28;;;;;;;11.30;7.85;;;0.60;99.90;;;;;;5055965;28;20037;-76
2022/03/05 04:10:38;;;;;;;13.20;8.75;;;0.60;99.90;;;;;;5056467;28;20049;-76
2022/03/05 04:13:03;;;;;;;12.00;7.75;;;0.60;99.90;;;;;;5039844;28;20045;-76
2022/03/05 04:15:29;;;;;;;13.43;7.82;;;0.50;99.90;;;;;;5023144;28;20037;-76
2022/03/05 04:17:54;;;;;;;14.90;8.55;;;0.50;99.90;;;;;;5023098;28;20044;-76
2022/03/05 04:20:20;;;;;;;12.55;8.40;;;0.50;99.90;;;;;;5023027;28;20051;-76
2022/03/05 04:22:46;;;;;;;13.57;7.82;;;0.50;99.90;;;;;;5022811;28;20036;-76
2022/03/05 04:25:12;;;;;;;11.85;8.18;;;0.50;99.90;;;;;;5021976;28;20037;-77
2022/03/05 04:27:37;;;;;;;12.40;8.23;;;0.50;99.90;;;;;;5020136;28;20079;-77
2022/03/05 04:30:04;;;;;;;15.18;8.95;;;0.50;99.90;;;;;;5036739;28;20053;-77
2022/03/05 04:32:30;;;;;;;12.93;8.25;;;0.40;99.90;;;;;;5036367;28;20037;-77
2022/03/05 04:34:56;;;;;;;15.25;8.63;;;0.40;99.90;;;;;;5020304;28;20093;-77
2022/03/05 04:37:21;;;;;;;12.13;8.15;;;0.40;99.90;;;;;;5019961;28;20041;-77
2022/03/05 04:39:47;;;;;;;11.93;8.32;;;0.40;99.90;;;;;;5019834;28;20040;-77
2022/03/05 04:42:12;;;;;;;14.25;8.68;;;0.40;99.90;;;;;;5036228;28;20037;-77
2022/03/05 04:44:38;;;;;;;13.82;8.30;;;0.40;99.90;;;;;;5019758;28;20044;-77
2022/03/05 04:47:04;;;;;;;13.63;8.43;;;0.40;99.90;;;;;;5036438;28;20037;-77
2022/03/05 04:49:29;;;;;;;12.40;8.98;;;0.40;99.90;;;;;;5036111;28;20548;-77
2022/03/05 04:51:55;;;;;;;13.85;8.98;;;0.40;99.90;;;;;;5035987;28;20139;-77
2022/03/05 04:54:21;;;;;;;13.07;8.65;;;0.40;99.90;;;;;;5036047;28;20077;-77
2022/03/05 04:56:46;;;;;;;14.73;8.30;;;0.40;99.90;;;;;;5020426;28;20041;-77
2022/03/05 04:59:12;;;;;;;13.95;8.90;;;0.40;99.90;;;;;;5035982;28;20124;-77
2022/03/05 05:01:37;;;;;;;14.25;8.85;;;0.30;99.90;;;;;;5035839;28;20072;-77
2022/03/05 05:04:04;;;;;;;13.40;8.48;;;0.30;99.90;;;;;;5036178;28;20045;-77
2022/03/05 05:06:29;;;;;;;15.32;8.57;;;0.30;99.90;;;;;;5019317;28;20039;-77
2022/03/05 05:08:55;;;;;;;12.45;8.35;;;0.30;99.90;;;;;;5035827;28;20032;-77
2022/03/05 05:11:21;;;;;;;13.25;8.32;;;0.30;99.90;;;;;;5024645;28;20041;-77
2022/03/05 05:13:46;;;;;;;15.25;9.07;;;0.30;99.90;;;;;;5035975;28;20039;-77
2022/03/05 05:16:13;;;;;;;15.73;9.02;;;0.30;99.90;;;;;;5052500;28;20428;-77
2022/03/05 05:18:39;;;;;;;13.90;8.90;;;0.30;99.90;;;;;;5052246;28;20488;-77
2022/03/05 05:21:04;;;;;;;16.80;9.40;;;0.30;99.90;;;;;;5052053;28;20083;-77
2022/03/05 05:23:30;;;;;;;13.82;8.90;;;0.30;99.90;;;;;;5052131;28;20045;-77
2022/03/05 05:25:56;;;;;;;15.13;9.35;;;0.30;99.90;;;;;;5052093;28;20037;-77
2022/03/05 05:28:22;;;;;;;14.98;9.10;;;0.30;99.90;;;;;;5051591;28;20509;-77
2022/03/05 05:30:48;;;;;;;15.43;9.27;;;0.30;99.90;;;;;;5035666;28;20037;-77
2022/03/05 05:33:14;;;;;;;16.38;9.00;;;0.30;99.90;;;;;;5053256;28;20048;-77
2022/03/05 05:35:39;;;;;;;14.80;8.70;;;0.20;99.90;;;;;;5052465;28;20397;-77
2022/03/05 05:38:05;;;;;;;14.88;8.25;;;0.30;99.90;;;;;;5035322;28;20417;-77
2022/03/05 05:40:30;;;;;;;12.90;8.63;;;0.20;99.90;;;;;;5035558;28;20052;-77
2022/03/05 05:42:56;;;;;;;14.80;8.38;;;0.30;99.90;;;;;;5051847;28;20037;-77
2022/03/05 05:45:22;;;;;;;14.15;8.50;;;0.30;99.90;;;;;;5052154;28;20083;-77
2022/03/05 05:47:47;;;;;;;14.07;8.15;;;0.20;99.90;;;;;;5035232;28;20192;-77
2022/03/05 05:50:13;;;;;;;12.95;8.18;;;0.20;99.90;;;;;;5035467;28;20049;-77
2022/03/05 05:52:39;;;;;;;14.48;7.95;;;0.20;99.90;;;;;;5052109;28;20123;-77
2022/03/05 05:55:05;;;;;;;12.20;7.82;;;0.20;99.90;;;;;;5051807;28;20488;-77
2022/03/05 05:57:30;;;;;;;13.55;8.13;;;0.20;99.90;;;;;;5035114;28;20037;-77
2022/03/05 05:59:56;;;;;;;12.20;7.70;;;0.20;99.90;;;;;;5035454;28;20082;-77
2022/03/05 06:02:22;;;;;;;16.27;7.97;;;0.20;99.90;;;;;;5051531;28;20513;-77
2022/03/05 06:04:47;;;;;;;11.55;7.63;;;0.20;99.90;;;;;;5051723;28;20033;-77
2022/03/05 06:07:13;;;;;;;13.07;7.65;;;0.20;99.90;;;;;;5051690;28;20098;-77
2022/03/05 06:09:38;;;;;;;14.13;8.27;;;0.20;99.90;;;;;;5051721;28;20528;-77
2022/03/05 06:12:04;;;;;;;11.57;7.57;;;0.20;99.90;;;;;;5051704;28;20040;-77
2022/03/05 06:14:30;;;;;;;10.77;7.45;;;0.20;99.90;;;;;;5051620;28;20073;-78
2022/03/05 06:16:56;;;;;;;12.73;7.75;;;0.20;99.90;;;;;;5051625;28;20091;-78
2022/03/05 06:19:21;;;;;;;11.73;8.00;;;0.20;99.90;;;;;;5051570;28;20045;-78
2022/03/05 06:21:47;;;;;;;12.20;8.23;;;0.10;99.90;;;;;;5051527;28;20041;-78
2022/03/05 06:24:13;;;;;;;12.45;7.95;;;0.20;99.90;;;;;;5034856;28;20485;-78
2022/03/05 06:26:38;;;;;;;11.13;7.90;;;0.20;99.90;;;;;;5051499;28;20036;-78
2022/03/05 06:29:04;;;;;;;13.57;7.28;;;0.20;99.90;;;;;;5035169;28;20045;-78
2022/03/05 06:31:30;;;;;;;12.95;7.80;;;0.10;99.90;;;;;;5034794;28;20044;-78
2022/03/05 06:33:55;;;;;;;12.88;8.45;;;0.10;99.90;;;;;;5035175;28;20041;-78
2022/03/05 06:36:21;;;;;;;14.77;8.13;;;0.10;99.90;;;;;;5035118;28;20501;-78
2022/03/05 06:38:46;;;;;;;13.50;8.27;;;0.10;99.90;;;;;;5034764;28;20474;-78
2022/03/05 06:41:12;;;;;;;11.82;7.78;;;0.10;99.90;;;;;;5053868;28;20045;-78
2022/03/05 06:43:38;;;;;;;12.77;8.10;;;0.00;99.90;;;;;;5055229;28;20045;-78
2022/03/05 06:46:03;;;;;;;12.77;8.05;;;0.00;99.90;;;;;;5055134;28;20036;-78
2022/03/05 06:48:29;;;;;;;13.25;7.47;;;0.00;99.90;;;;;;5055033;28;20037;-78
2022/03/05 06:50:54;;;;;;;12.23;7.10;;;0.00;99.90;;;;;;5038380;28;20040;-78
2022/03/05 06:53:20;;;;;;;10.52;7.30;;;0.00;99.90;;;;;;5038476;28;20091;-78
2022/03/05 06:55:45;;;;;;;11.73;7.47;;;0.00;99.90;;;;;;5038586;28;20044;-78
2022/03/05 06:58:11;;;;;;;12.40;7.20;;;0.10;99.90;;;;;;5055486;28;20041;-78
2022/03/05 07:00:37;;;;;;;11.27;7.75;;;0.10;99.90;;;;;;5055108;28;20041;-77
2022/03/05 07:03:02;;;;;;;12.07;7.38;;;0.10;99.90;;;;;;5038150;28;20571;-77
2022/03/05 07:05:28;;;;;;;11.32;7.75;;;0.20;99.90;;;;;;5038369;28;20032;-77
2022/03/05 07:07:53;;;;;;;12.82;7.80;;;0.20;99.90;;;;;;5038134;28;20075;-77
2022/03/05 07:10:19;;;;;;;10.90;7.88;;;0.20;99.90;;;;;;5054363;28;20069;-77
2022/03/05 07:12:45;;;;;;;11.50;7.72;;;0.20;99.90;;;;;;5021459;28;20041;-77
2022/03/05 07:15:10;;;;;;;11.60;7.60;;;0.20;99.90;;;;;;5021445;28;20037;-77
2022/03/05 07:17:36;;;;;;;14.13;8.18;;;0.30;99.90;;;;;;5037918;28;20040;-77
2022/03/05 07:20:03;;;;;;;12.68;8.48;;;0.30;99.90;;;;;;5037800;28;20037;-77
2022/03/05 07:22:29;;;;;;;13.98;8.13;;;0.30;99.90;;;;;;5021330;28;20124;-77
2022/03/05 07:24:54;;;;;;;10.73;8.18;;;0.40;99.90;;;;;;5037789;28;20069;-77
2022/03/05 07:27:20;;;;;;;14.55;8.38;;;0.40;99.90;;;;;;5037809;28;20041;-77
2022/03/05 07:29:46;;;;;;;13.82;8.38;;;0.50;99.90;;;;;;5037680;28;20072;-77
2022/03/05 07:32:12;;;;;;;10.63;7.57;;;0.50;99.90;;;;;;5021170;28;20043;-77
2022/03/05 07:34:38;;;;;;;14.27;8.63;;;0.60;99.90;;;;;;5021208;28;20044;-78
2022/03/05 07:37:04;;;;;;;12.40;8.10;;;0.60;99.90;;;;;;5037911;28;20045;-78
2022/03/05 07:39:29;;;;;;;11.93;7.60;;;0.70;99.90;;;;;;5038141;28;20048;-78
2022/03/05 07:41:55;;;;;;;13.10;8.93;;;0.80;99.90;;;;;;5038885;28;20195;-78
2022/03/05 07:44:20;;;;;;;13.43;8.80;;;0.80;99.90;;;;;;5038610;28;20112;-78
2022/03/05 07:46:46;;;;;;;13.43;8.25;;;0.90;99.90;;;;;;5038250;28;20171;-78
2022/03/05 07:49:12;;;;;;;17.38;9.18;;;1.00;99.90;;;;;;5021427;28;20037;-78
2022/03/05 07:51:37;;;;;;;13.25;8.68;;;1.00;99.90;;;;;;5020418;28;20128;-78
2022/03/05 07:54:04;;;;;;;14.55;9.20;;;1.10;99.90;;;;;;5038273;28;20529;-78
2022/03/05 07:56:30;;;;;;;14.18;8.88;;;1.10;99.90;;;;;;5038112;28;20466;-78
2022/03/05 07:58:55;;;;;;;14.73;9.82;;;1.20;99.90;;;;;;5021584;28;20560;-78
2022/03/05 08:01:21;;;;;;;15.00;8.93;;;1.20;99.90;;;;;;5037642;28;20412;-78
2022/03/05 08:03:47;;;;;;;15.77;9.80;;;1.30;99.90;;;;;;5039415;28;20029;-78
2022/03/05 08:06:12;;;;;;;16.30;9.38;;;1.30;99.90;;;;;;5039621;28;20060;-78
2022/03/05 08:08:38;;;;;;;13.43;9.55;;;1.40;99.90;;;;;;5022507;28;20041;-78
2022/03/05 08:11:04;;;;;;;14.80;9.65;;;1.50;99.90;;;;;;5040611;28;20041;-77
2022/03/05 08:13:29;;;;;;;16.75;10.32;;;1.60;99.90;;;;;;5054568;28;20041;-78
2022/03/05 08:15:56;;;;;;;16.20;9.57;;;1.60;99.90;;;;;;5037364;28;20397;-78
2022/03/05 08:18:22;;;;;;;14.98;10.02;;;1.70;99.90;;;;;;5054569;28;20516;-78
2022/03/05 08:20:48;;;;;;;15.95;9.50;;;1.70;99.90;;;;;;5054762;28;20378;-78
2022/03/05 08:23:13;;;;;;;16.08;10.20;;;1.80;99.90;;;;;;5037703;28;20597;-78
2022/03/05 08:25:39;;;;;;;14.98;9.48;;;1.80;99.90;;;;;;5037197;28;20048;-78
2022/03/05 08:28:05;;;;;;;15.27;9.75;;;1.90;99.90;;;;;;5037497;28;20083;-78
2022/03/05 08:30:30;;;;;;;17.23;10.20;;;2.00;99.90;;;;;;5036798;28;20043;-78
2022/03/05 08:32:56;;;;;;;15.13;9.60;;;2.00;99.90;;;;;;5053377;28;20040;-78
2022/03/05 08:35:22;;;;;;;16.65;10.57;;;2.10;99.90;;;;;;5036912;28;20475;-78
2022/03/05 08:37:48;;;;;;;17.38;10.93;;;2.20;99.90;;;;;;5036470;28;20043;-78
2022/03/05 08:40:15;;;;;;;16.48;11.18;;;2.40;99.90;;;;;;5053150;28;20048;-78
2022/03/05 08:42:42;;;;;;;16.48;10.30;;;2.90;99.90;;;;;;5036308;28;20132;-78
2022/03/05 08:45:08;;;;;;;16.55;10.77;;;4.30;99.90;;;;;;5052925;28;20036;-78
2022/03/05 08:47:35;;;;;;;16.42;10.70;;;5.80;99.90;;;;;;5052785;28;20128;-78
2022/03/05 08:50:01;;;;;;;16.70;10.60;;;7.10;98.50;;;;;;5036259;28;20033;-78
2022/03/05 08:52:29;;;;;;;19.10;11.07;;;8.20;90.30;;;;;;5036132;28;20068;-78
2022/03/05 08:54:55;;;;;;;16.02;10.65;;;9.10;76.30;;;;;;5052637;28;20049;-78
2022/03/05 08:57:20;;;;;;;17.08;11.50;;;10.00;69.50;;;;;;5036285;28;20094;-78
2022/03/05 08:59:46;;;;;;;18.08;11.75;;;10.70;64.60;;;;;;5036128;28;20044;-78
2022/03/05 09:02:12;;;;;;;17.20;11.50;;;11.20;61.70;;;;;;5051949;28;20170;-77
2022/03/05 09:04:37;;;;;;;16.70;12.10;;;11.50;59.60;;;;;;5052247;28;20044;-78
2022/03/05 09:07:03;;;;;;;16.52;10.50;;;12.00;58.30;;;;;;5052506;28;20041;-78
2022/03/05 09:09:29;;;;;;;16.02;11.55;;;12.30;57.00;;;;;;5035827;28;20040;-78
2022/03/05 09:11:54;;;;;;;17.27;11.48;;;12.60;55.30;;;;;;5035664;28;20128;-78
2022/03/05 09:14:20;;;;;;;17.20;12.50;;;12.90;54.10;;;;;;5052373;28;20045;-78
2022/03/05 09:16:46;;;;;;;17.50;12.13;;;13.20;54.00;;;;;;5035960;28;20041;-78
2022/03/05 09:19:12;;;;;;;15.35;11.73;;;13.40;52.90;;;;;;5035671;28;20040;-78
2022/03/05 09:21:37;;;;;;;17.23;12.13;;;13.50;52.10;;;;;;5052395;28;20040;-78
2022/03/05 09:24:05;;;;;;;19.00;12.63;;;13.80;51.30;;;;;;5052516;28;20056;-78
2022/03/05 09:26:32;;;;;;;15.02;11.63;;;14.00;51.40;;;;;;5035822;28;20036;-78
2022/03/05 09:28:57;;;;;;;16.23;12.05;;;14.30;50.50;;;;;;5035656;28;20063;-78
2022/03/05 09:31:23;;;;;;;18.40;13.07;;;14.60;49.30;;;;;;5052379;28;20043;-78
2022/03/05 09:33:48;;;;;;;18.35;13.35;;;14.80;48.40;;;;;;5052499;28;20090;-78
2022/03/05 09:36:14;;;;;;;17.30;12.77;;;14.90;48.00;;;;;;5052529;28;20048;-78
2022/03/05 09:38:40;;;;;;;20.58;13.05;;;15.10;46.90;;;;;;5035464;28;20485;-78
2022/03/05 09:41:07;;;;;;;16.48;12.82;;;15.20;46.70;;;;;;5035615;28;20073;-82
2022/03/05 09:43:33;;;;;;;16.98;13.20;;;15.50;46.60;;;;;;5035945;28;20041;-78
2022/03/05 09:46:00;;;;;;;17.48;13.23;;;15.60;46.00;;;;;;5035516;28;20032;-78
2022/03/05 09:48:27;;;;;;;16.52;12.45;;;15.60;45.90;;;;;;5051863;28;20116;-77
2022/03/05 09:50:54;;;;;;;17.30;13.10;;;15.70;45.30;;;;;;5051857;28;20485;-77
2022/03/05 09:53:23;;;;;;;18.58;13.10;;;16.10;45.40;;;;;;5052383;28;20048;-81
2022/03/05 09:55:49;;;;;;;19.73;13.52;;;16.20;44.50;;;;;;5036676;28;20138;-81
2022/03/05 09:58:15;;;;;;;19.27;12.93;;;16.40;44.50;;;;;;5053598;28;20040;-79
2022/03/05 10:00:41;;;;;;;18.70;13.02;;;16.50;44.00;;;;;;5037297;28;20041;-79
2022/03/05 10:03:07;;;;;;;16.70;13.00;;;16.60;43.80;;;;;;5052441;28;20048;-78
2022/03/05 10:05:34;;;;;;;17.20;11.95;;;16.70;43.80;;;;;;5053333;28;20460;-78
2022/03/05 10:08:01;;;;;;;18.38;12.30;;;16.70;43.40;;;;;;5052637;28;20095;-78
2022/03/05 10:10:28;;;;;;;16.77;12.88;;;16.70;42.80;;;;;;5051852;28;20489;-78
2022/03/05 10:12:53;;;;;;;17.02;13.13;;;16.60;43.00;;;;;;5035634;28;20094;-78
2022/03/05 10:15:21;;;;;;;19.33;12.88;;;16.80;43.10;;;;;;5022675;28;20040;-77
2022/03/05 10:17:58;;;;;;;18.75;13.07;;;16.90;43.10;;;;;;5023143;28;20548;-80
2022/03/05 10:20:29;;;;;;;23.02;14.48;;;16.90;42.20;;;;;;5022690;28;20045;-77
2022/03/05 10:23:04;;;;;;;18.35;13.05;;;16.90;42.00;;;;;;5039147;28;20037;-77
2022/03/05 10:25:50;;;;;;;18.63;13.57;;;16.90;41.90;;;;;;5022396;28;20040;-77
2022/03/05 10:28:22;;;;;;;19.15;13.40;;;17.00;42.50;;;;;;5038081;28;20504;-78
2022/03/05 10:30:55;;;;;;;19.10;13.60;;;17.00;41.40;;;;;;5022232;28;20041;-78
2022/03/05 10:33:26;;;;;;;18.83;13.88;;;17.10;41.50;;;;;;5039629;28;20056;-78
2022/03/05 10:35:52;;;;;;;19.90;13.40;;;17.10;41.70;;;;;;5039384;28;20084;-78
2022/03/05 10:38:18;;;;;;;18.17;13.32;;;17.30;41.90;;;;;;5039250;28;20045;-78
2022/03/05 10:40:53;;;;;;;17.90;13.73;;;17.40;41.60;;;;;;5022329;28;20408;-80
2022/03/05 10:43:19;;;;;;;21.88;15.02;;;17.50;40.30;;;;;;5040510;28;20066;-78
2022/03/05 10:45:58;;;;;;;18.17;13.52;;;17.40;40.60;;;;;;5041201;28;20393;-78
2022/03/05 10:48:28;;;;;;;20.02;13.77;;;17.40;40.20;;;;;;5025016;28;20044;-78
2022/03/05 10:51:05;;;;;;;20.48;13.45;;;17.40;40.60;;;;;;5042214;28;20075;-78
2022/03/05 10:53:41;;;;;;;19.52;14.27;;;17.40;40.20;;;;;;5041947;28;20052;-79
2022/03/05 10:56:27;;;;;;;19.05;13.98;;;17.40;39.80;;;;;;5043500;28;20405;-79
2022/03/05 10:59:01;;;;;;;19.30;13.82;;;17.50;40.70;;;;;;5041986;28;20512;-79
2022/03/05 11:01:28;;;;;;;20.25;14.43;;;17.50;40.30;;;;;;5041788;28;20044;-79
2022/03/05 11:03:55;;;;;;;23.13;14.13;;;17.50;40.50;;;;;;5041943;28;20527;-79
2022/03/05 11:06:22;;;;;;;18.75;14.02;;;17.50;40.80;;;;;;5041727;28;20041;-79
2022/03/05 11:08:49;;;;;;;18.38;13.95;;;17.60;40.70;;;;;;5041609;28;20045;-79
2022/03/05 11:11:15;;;;;;;21.45;14.95;;;17.60;40.70;;;;;;5029790;28;20448;-79
2022/03/05 11:13:42;;;;;;;20.95;13.00;;;17.50;40.60;;;;;;5058229;28;20044;-74
2022/03/05 11:16:09;;;;;;;19.40;14.13;;;17.30;41.30;;;;;;5055609;28;20147;-77
2022/03/05 11:18:36;;;;;;;21.08;14.65;;;17.10;41.50;;;;;;5054555;28;20466;-77
2022/03/05 11:21:02;;;;;;;22.48;14.38;;;16.90;42.00;;;;;;5054587;28;20033;-77
2022/03/05 11:23:28;;;;;;;18.95;14.32;;;16.40;42.70;;;;;;5054379;28;20531;-77
2022/03/05 11:25:55;;;;;;;20.33;14.90;;;16.00;43.40;;;;;;5053639;28;20520;-77
2022/03/05 11:28:22;;;;;;;21.52;14.65;;;16.00;43.90;;;;;;5054363;28;20033;-77
2022/03/05 11:30:55;;;;;;;19.80;14.80;;;15.70;44.30;;;;;;5054254;28;20041;-77
2022/03/05 11:33:23;;;;;;;20.10;14.52;;;15.30;44.70;;;;;;5054332;28;20417;-77
2022/03/05 11:35:48;;;;;;;19.05;13.32;;;15.10;45.80;;;;;;5054709;28;20512;-76
2022/03/05 11:38:47;;;;;;;21.17;13.63;;;15.10;45.90;;;;;;5054167;28;20186;-77
2022/03/05 11:41:21;;;;;;;22.25;14.95;;;15.10;45.40;;;;;;4980956;28;20060;-77
2022/03/05 11:43:47;;;;;;;19.42;15.27;;;15.00;46.20;;;;;;4997331;28;20042;-77
2022/03/05 11:46:27;;;;;;;20.95;15.57;;;14.90;46.60;;;;;;4997421;28;20569;-77
2022/03/05 11:49:07;;;;;;;23.13;15.35;;;15.10;46.40;;;;;;4997319;28;20041;-77
2022/03/05 11:51:49;;;;;;;22.45;15.25;;;15.20;46.00;;;;;;4997268;28;20046;-77
2022/03/05 11:54:17;;;;;;;19.63;14.38;;;15.20;46.70;;;;;;4980870;28;20129;-78
2022/03/05 11:57:00;;;;;;;20.98;15.55;;;15.30;46.30;;;;;;4997191;28;20054;-77
2022/03/05 11:59:33;;;;;;;21.58;15.77;;;15.30;46.20;;;;;;4980663;28;20046;-77
2022/03/05 12:01:59;;;;;;;20.25;14.88;;;15.40;46.10;;;;;;4980561;28;20132;-77
2022/03/05 12:04:28;;;;;;;22.38;15.02;;;15.50;46.10;;;;;;4997178;28;20057;-81
2022/03/05 12:07:13;;;;;;;21.88;15.75;;;15.60;46.30;;;;;;4980410;28;20537;-77
2022/03/05 12:09:44;;;;;;;23.50;16.08;;;15.80;46.20;;;;;;4996631;28;20053;-77
2022/03/05 12:12:12;;;;;;;20.88;14.55;;;15.90;45.30;;;;;;4996439;28;20388;-77
2022/03/05 12:15:03;;;;;;;20.15;14.43;;;15.90;45.20;;;;;;4996570;28;20046;-76
2022/03/05 12:17:37;;;;;;;22.02;15.43;;;16.00;44.30;;;;;;5024593;28;20048;-77
2022/03/05 12:20:09;;;;;;;22.20;15.73;;;16.00;44.90;;;;;;5053444;28;20505;-77
2022/03/05 12:22:34;;;;;;;21.30;14.90;;;16.10;45.20;;;;;;5053132;28;20503;-77
2022/03/05 12:25:00;;;;;;;20.40;14.73;;;16.00;45.20;;;;;;5053501;28;20036;-77
2022/03/05 12:27:29;;;;;;;20.15;14.43;;;15.80;44.50;;;;;;5036597;28;20036;-77
2022/03/05 12:29:57;;;;;;;21.73;15.88;;;15.80;45.40;;;;;;5053362;28;20132;-77
2022/03/05 12:32:29;;;;;;;31.65;16.13;;;15.70;44.40;;;;;;5037567;28;20048;-79
2022/03/05 12:35:08;;;;;;;27.30;15.38;;;15.50;45.10;;;;;;5039947;28;20044;-80
2022/03/05 12:37:34;;;;;;;29.25;15.57;;;15.50;44.80;;;;;;5041321;28;20037;-79
2022/03/05 12:40:01;;;;;;;32.75;16.20;;;15.60;45.40;;;;;;5040386;28;20413;-79
2022/03/05 12:42:35;;;;;;;26.27;16.10;;;15.70;45.10;;;;;;5056280;28;20537;-79